Time;durP1;ratioP1;P1;durP2;ratioP2;P2;SDS_P1;SDS_P2;PMS_P1;PMS_P2;Temp;Humidity;BMP_temperature;BMP_pressure;BME280_temperature;BME280_humidity;BME280_pressure;Samples;Min_cycle;Max_cycle;Signal;HPM_P1;HPM_P2
2021/08/16 00:02:22;;;;;;;11.63;5.50;;;;;;;16.61;nan;100861.53;6269384;22;19996;-49
2021/08/16 00:04:48;;;;;;;9.60;5.32;;;;;;;16.61;nan;100866.13;6268798;22;20007;-51
2021/08/16 00:07:13;;;;;;;8.18;5.53;;;;;;;16.59;nan;100858.31;6269814;22;20003;-49
2021/08/16 00:09:39;;;;;;;8.95;5.30;;;;;;;16.57;nan;100848.88;6268414;22;20004;-49
2021/08/16 00:12:05;;;;;;;9.90;5.50;;;;;;;16.49;nan;100842.16;6268511;22;20026;-51
2021/08/16 00:14:31;;;;;;;11.43;4.93;;;;;;;16.52;nan;100836.22;6241231;22;20034;-50
2021/08/16 00:16:58;;;;;;;12.50;5.20;;;;;;;16.45;nan;100835.72;6268533;22;20366;-49
2021/08/16 00:19:25;;;;;;;9.25;5.68;;;;;;;16.35;nan;100835.03;6269387;22;20030;-50
2021/08/16 00:21:51;;;;;;;8.77;5.43;;;;;;;16.32;nan;100833.66;6269143;22;20030;-49
2021/08/16 00:24:16;;;;;;;11.82;5.88;;;;;;;16.26;nan;100826.69;6269162;22;20086;-51
2021/08/16 00:26:42;;;;;;;11.52;5.75;;;;;;;16.20;nan;100825.13;6268115;22;20000;-50
2021/08/16 00:29:07;;;;;;;9.95;5.50;;;;;;;16.10;nan;100820.63;6268207;22;20125;-52
2021/08/16 00:31:33;;;;;;;9.85;5.68;;;;;;;16.06;nan;100813.34;6268688;22;20458;-50
2021/08/16 00:33:58;;;;;;;11.32;5.63;;;;;;;15.97;nan;100815.84;6269042;22;20011;-50
2021/08/16 00:36:24;;;;;;;9.48;5.95;;;;;;;15.92;nan;100805.88;6269227;22;20346;-50
2021/08/16 00:38:50;;;;;;;11.02;5.07;;;;;;;15.95;nan;100799.91;6268411;22;20385;-51
2021/08/16 00:41:18;;;;;;;10.57;6.00;;;;;;;15.96;nan;100806.13;6268114;22;20035;-52
2021/08/16 00:43:43;;;;;;;10.18;5.55;;;;;;;16.00;nan;100802.59;6268539;22;20008;-50
2021/08/16 00:46:10;;;;;;;8.65;5.38;;;;;;;16.05;nan;100790.94;6268673;22;20034;-50
2021/08/16 00:48:35;;;;;;;9.32;5.80;;;;;;;16.11;nan;100797.09;6268140;22;20098;-50
2021/08/16 00:51:02;;;;;;;11.82;5.72;;;;;;;16.11;nan;100792.50;6268307;22;20325;-49
2021/08/16 00:53:29;;;;;;;10.27;5.63;;;;;;;16.15;nan;100788.13;6268847;22;20053;-49
2021/08/16 00:55:55;;;;;;;9.02;5.40;;;;;;;16.17;nan;100785.97;6268462;22;20354;-49
2021/08/16 00:58:21;;;;;;;9.23;6.28;;;;;;;16.17;nan;100777.06;6268146;22;20115;-49
2021/08/16 01:00:47;;;;;;;9.63;5.70;;;;;;;16.15;nan;100771.91;6269340;22;20192;-49
2021/08/16 01:03:13;;;;;;;8.98;5.65;;;;;;;16.17;nan;100763.53;6270698;22;20321;-50
2021/08/16 01:05:39;;;;;;;15.07;6.07;;;;;;;16.03;nan;100768.78;6270637;22;20006;-49
2021/08/16 01:08:05;;;;;;;13.10;5.05;;;;;;;16.04;nan;100769.59;6270262;22;19996;-50
2021/08/16 01:10:31;;;;;;;8.52;5.50;;;;;;;16.00;nan;100762.06;6242478;22;20018;-50
2021/08/16 01:13:00;;;;;;;11.85;5.97;;;;;;;15.92;nan;100757.25;6270617;22;20348;-53
2021/08/16 01:15:28;;;;;;;8.98;5.75;;;;;;;15.93;nan;100750.75;6271179;22;20000;-52
2021/08/16 01:17:54;;;;;;;9.25;6.13;;;;;;;15.98;nan;100752.63;6270311;22;20012;-50
2021/08/16 01:20:20;;;;;;;12.48;5.97;;;;;;;15.92;nan;100746.44;6270219;22;20007;-51
2021/08/16 01:22:45;;;;;;;7.88;5.43;;;;;;;15.95;nan;100745.88;6270001;22;20053;-51
2021/08/16 01:25:11;;;;;;;10.45;6.57;;;;;;;15.96;nan;100736.66;6270226;22;20231;-53
2021/08/16 01:27:38;;;;;;;10.70;5.95;;;;;;;15.97;nan;100732.88;6270268;22;20076;-50
2021/08/16 01:30:16;;;;;;;14.70;6.03;;;;;;;15.93;nan;100737.25;6270744;22;20068;-49
2021/08/16 01:32:42;;;;;;;9.63;5.78;;;;;;;15.94;nan;100732.66;6269732;22;20034;-50
2021/08/16 01:35:09;;;;;;;8.77;5.35;;;;;;;15.95;nan;100729.66;6270576;22;20470;-49
2021/08/16 01:37:34;;;;;;;9.85;6.18;;;;;;;15.96;nan;100717.75;6243528;22;20010;-50
2021/08/16 01:40:00;;;;;;;11.05;6.32;;;;;;;15.95;nan;100724.25;6268515;22;20004;-50
2021/08/16 01:42:25;;;;;;;10.00;5.60;;;;;;;15.97;nan;100726.66;6271717;22;20003;-52
2021/08/16 01:44:51;;;;;;;10.13;6.00;;;;;;;16.00;nan;100736.94;6270556;22;20508;-49
2021/08/16 01:47:16;;;;;;;10.13;5.57;;;;;;;16.02;nan;100723.94;6271239;22;20010;-49
2021/08/16 01:49:42;;;;;;;11.73;6.40;;;;;;;15.99;nan;100719.09;6269435;22;20011;-50
2021/08/16 01:52:07;;;;;;;11.63;5.57;;;;;;;16.02;nan;100715.84;6270137;22;20555;-51
2021/08/16 01:54:34;;;;;;;9.52;5.75;;;;;;;15.98;nan;100712.09;6268927;22;20117;-49
2021/08/16 01:56:59;;;;;;;12.02;5.80;;;;;;;15.99;nan;100702.91;6270559;22;19999;-50
2021/08/16 01:59:25;;;;;;;11.48;5.88;;;;;;;15.97;nan;100705.84;6269739;22;20004;-51
2021/08/16 02:01:50;;;;;;;12.18;6.07;;;;;;;15.94;nan;100706.44;6269711;22;19999;-52
2021/08/16 02:04:16;;;;;;;9.25;5.63;;;;;;;15.89;nan;100701.09;6270186;22;20011;-52
2021/08/16 02:06:42;;;;;;;11.05;6.07;;;;;;;15.86;nan;100698.94;6269758;22;20008;-50
2021/08/16 02:09:07;;;;;;;9.50;5.80;;;;;;;15.82;nan;100687.09;6268027;22;20074;-50
2021/08/16 02:11:33;;;;;;;10.88;6.18;;;;;;;15.76;nan;100685.53;6268359;22;20007;-50
2021/08/16 02:13:58;;;;;;;10.30;6.63;;;;;;;15.68;nan;100673.44;6269982;22;20424;-50
2021/08/16 02:16:24;;;;;;;11.73;6.25;;;;;;;15.62;nan;100671.88;6269683;22;20007;-50
2021/08/16 02:18:50;;;;;;;11.80;6.60;;;;;;;15.60;nan;100665.13;6268909;22;20765;-51
2021/08/16 02:21:15;;;;;;;12.13;6.60;;;;;;;15.59;nan;100667.03;6269932;22;20016;-50
2021/08/16 02:23:41;;;;;;;11.23;6.45;;;;;;;15.58;nan;100661.88;6268794;22;20003;-52
2021/08/16 02:26:06;;;;;;;10.85;5.85;;;;;;;15.54;nan;100652.75;6270079;22;20463;-50
2021/08/16 02:28:33;;;;;;;12.88;6.88;;;;;;;15.57;nan;100639.47;6268864;22;20000;-50
2021/08/16 02:30:59;;;;;;;13.60;7.18;;;;;;;15.53;nan;100634.94;6269616;22;20011;-50
2021/08/16 02:33:25;;;;;;;10.73;6.07;;;;;;;15.51;nan;100635.22;6269855;22;19999;-50
2021/08/16 02:35:50;;;;;;;14.15;6.50;;;;;;;15.34;nan;100643.72;6242266;22;20007;-49
2021/08/16 02:38:16;;;;;;;11.00;6.72;;;;;;;15.42;nan;100643.09;6269144;22;20444;-51
2021/08/16 02:40:41;;;;;;;8.82;6.15;;;;;;;15.47;nan;100639.59;6270231;22;20007;-50
2021/08/16 02:43:07;;;;;;;11.35;5.72;;;;;;;15.42;nan;100645.00;6269991;22;19996;-52
2021/08/16 02:45:32;;;;;;;10.50;5.60;;;;;;;15.42;nan;100645.81;6268721;22;20583;-52
2021/08/16 02:47:58;;;;;;;9.13;6.18;;;;;;;15.42;nan;100645.81;6269521;22;20003;-53
2021/08/16 02:50:24;;;;;;;11.73;5.80;;;;;;;15.43;nan;100647.41;6269271;22;20030;-52
2021/08/16 02:52:51;;;;;;;9.73;5.78;;;;;;;15.42;nan;100645.81;6267745;22;20046;-51
2021/08/16 02:55:17;;;;;;;11.85;6.38;;;;;;;15.40;nan;100656.09;6269467;22;20328;-51
2021/08/16 02:57:42;;;;;;;8.90;5.72;;;;;;;15.36;nan;100648.84;6269218;22;20000;-52
2021/08/16 03:00:08;;;;;;;9.30;6.38;;;;;;;15.33;nan;100658.31;6269951;22;20016;-52
2021/08/16 03:02:34;;;;;;;15.32;7.15;;;;;;;15.30;nan;100653.47;6269014;22;19995;-53
2021/08/16 03:04:59;;;;;;;10.35;5.93;;;;;;;15.26;nan;100651.59;6269325;22;20010;-50
2021/08/16 03:07:25;;;;;;;10.88;6.35;;;;;;;15.25;nan;100650.81;6268607;22;20453;-50
2021/08/16 03:09:50;;;;;;;11.45;6.25;;;;;;;15.17;nan;100646.00;6267385;22;20408;-50
2021/08/16 03:12:18;;;;;;;12.98;7.40;;;;;;;15.19;nan;100662.72;6270330;22;20079;-49
2021/08/16 03:14:44;;;;;;;11.30;6.00;;;;;;;15.13;nan;100639.56;6268843;22;20494;-50
2021/08/16 03:17:10;;;;;;;11.73;5.80;;;;;;;15.08;nan;100645.81;6269737;22;20018;-50
2021/08/16 03:19:35;;;;;;;10.50;6.68;;;;;;;15.00;nan;100641.00;6268429;22;20003;-50
2021/08/16 03:22:01;;;;;;;15.55;6.45;;;;;;;14.98;nan;100643.16;6269645;22;20164;-50
2021/08/16 03:24:27;;;;;;;10.68;5.97;;;;;;;14.95;nan;100640.22;6268234;22;20007;-51
2021/08/16 03:26:52;;;;;;;9.82;6.15;;;;;;;14.98;nan;100642.38;6269366;22;20008;-52
2021/08/16 03:29:18;;;;;;;9.23;5.50;;;;;;;14.97;nan;100638.88;6269007;22;20053;-51
2021/08/16 03:31:43;;;;;;;9.52;6.38;;;;;;;14.95;nan;100641.03;6268067;22;20439;-50
2021/08/16 03:34:10;;;;;;;8.68;6.30;;;;;;;14.92;nan;100638.91;6269623;22;20031;-50
2021/08/16 03:36:36;;;;;;;10.05;6.22;;;;;;;14.85;nan;100635.69;6269041;22;20239;-50
2021/08/16 03:39:01;;;;;;;10.02;5.90;;;;;;;14.78;nan;100646.00;6267958;22;20007;-50
2021/08/16 03:41:27;;;;;;;9.73;6.60;;;;;;;14.76;nan;100638.19;6269025;22;20000;-50
2021/08/16 03:43:52;;;;;;;12.27;6.40;;;;;;;14.74;nan;100636.84;6268793;22;20003;-51
2021/08/16 03:46:18;;;;;;;14.38;7.55;;;;;;;14.56;nan;100640.19;6270021;22;20053;-49
2021/08/16 03:48:44;;;;;;;13.88;6.80;;;;;;;14.46;nan;100644.53;6267928;22;20057;-50
2021/08/16 03:51:09;;;;;;;11.85;6.57;;;;;;;14.52;nan;100637.22;6268982;22;20011;-51
2021/08/16 03:53:35;;;;;;;13.60;7.20;;;;;;;14.66;nan;100627.44;6268103;22;20000;-50
2021/08/16 03:56:01;;;;;;;10.55;6.35;;;;;;;14.72;nan;100623.66;6269131;22;20000;-51
2021/08/16 03:58:26;;;;;;;11.98;6.70;;;;;;;14.79;nan;100616.03;6269323;22;20324;-51
2021/08/16 04:00:52;;;;;;;10.00;7.00;;;;;;;14.87;nan;100622.72;6268748;22;20375;-52
2021/08/16 04:03:17;;;;;;;15.18;7.55;;;;;;;14.94;nan;100617.03;6269268;22;20067;-49
2021/08/16 04:05:43;;;;;;;15.52;7.95;;;;;;;15.00;nan;100613.22;6268881;22;20007;-50
2021/08/16 04:08:09;;;;;;;12.27;7.53;;;;;;;15.05;nan;100613.16;6267893;22;20078;-52
2021/08/16 04:10:34;;;;;;;11.38;7.38;;;;;;;15.15;nan;100618.50;6268732;22;20079;-50
2021/08/16 04:12:59;;;;;;;10.13;6.45;;;;;;;15.25;nan;100623.00;6268532;22;20003;-49
2021/08/16 04:15:25;;;;;;;12.70;7.90;;;;;;;15.32;nan;100634.31;6269538;22;20050;-51
2021/08/16 04:17:51;;;;;;;10.82;6.60;;;;;;;15.39;nan;100646.38;6268488;22;20077;-50
2021/08/16 04:20:18;;;;;;;14.02;7.38;;;;;;;15.50;nan;100654.41;6268777;22;20015;-50
2021/08/16 04:22:45;;;;;;;11.43;6.25;;;;;;;15.65;nan;100655.13;6267518;22;20081;-50
2021/08/16 04:25:12;;;;;;;12.43;6.25;;;;;;;15.85;nan;100664.91;6268567;22;20505;-50
2021/08/16 04:27:39;;;;;;;13.32;7.20;;;;;;;15.99;nan;100676.69;6268542;22;19999;-50
2021/08/16 04:30:05;;;;;;;14.60;7.03;;;;;;;15.67;nan;100700.75;6267551;22;20110;-50
2021/08/16 04:32:30;;;;;;;9.98;5.90;;;;;;;15.89;nan;100690.28;6241073;22;20023;-52
2021/08/16 04:34:56;;;;;;;8.70;5.13;;;;;;;15.96;nan;100676.41;6268851;22;20371;-50
2021/08/16 04:37:21;;;;;;;8.27;5.40;;;;;;;16.04;nan;100683.13;6269013;22;20003;-50
2021/08/16 04:39:47;;;;;;;11.65;5.70;;;;;;;16.18;nan;100657.03;6267983;22;20015;-51
2021/08/16 04:42:12;;;;;;;13.05;5.82;;;;;;;16.20;nan;100660.25;6268043;22;20000;-50
2021/08/16 04:44:38;;;;;;;9.55;5.82;;;;;;;16.23;nan;100646.16;6267652;22;20008;-49
2021/08/16 04:47:03;;;;;;;10.88;6.47;;;;;;;16.28;nan;100646.09;6267847;22;20011;-50
2021/08/16 04:49:29;;;;;;;11.07;7.07;;;;;;;16.33;nan;100654.13;6267061;22;20004;-50
2021/08/16 04:51:54;;;;;;;18.00;8.25;;;;;;;16.19;nan;100664.03;6240118;22;20011;-51
2021/08/16 04:54:20;;;;;;;14.30;8.00;;;;;;;16.27;nan;100649.88;6240057;22;20175;-50
2021/08/16 04:56:45;;;;;;;14.23;7.35;;;;;;;16.45;nan;100645.59;6266888;22;20003;-51
2021/08/16 04:59:11;;;;;;;13.27;6.88;;;;;;;16.56;nan;100647.91;6266729;22;20079;-50
2021/08/16 05:01:37;;;;;;;13.48;7.65;;;;;;;16.59;nan;100660.03;6266315;22;20058;-50
2021/08/16 05:04:04;;;;;;;12.05;7.10;;;;;;;16.55;nan;100659.81;6267285;22;20004;-50
2021/08/16 05:06:30;;;;;;;10.48;7.10;;;;;;;16.48;nan;100655.84;6240736;22;20026;-49
2021/08/16 05:08:56;;;;;;;14.80;7.13;;;;;;;16.52;nan;100671.22;6266248;22;20099;-50
2021/08/16 05:11:23;;;;;;;11.52;7.05;;;;;;;16.59;nan;100660.84;6267375;22;20008;-50
2021/08/16 05:13:49;;;;;;;15.10;7.50;;;;;;;16.68;nan;100654.81;6240376;22;20061;-50
2021/08/16 05:16:19;;;;;;;10.68;7.40;;;;;;;16.73;nan;100655.56;6268268;22;19999;-50
2021/08/16 05:18:45;;;;;;;11.68;6.88;;;;;;;16.85;nan;100652.41;6240163;22;20309;-50
2021/08/16 05:21:11;;;;;;;11.30;6.90;;;;;;;16.97;nan;100636.56;6267897;22;20363;-51
2021/08/16 05:23:36;;;;;;;11.45;7.07;;;;;;;17.09;nan;100631.50;6266649;22;20011;-49
2021/08/16 05:26:02;;;;;;;12.65;7.30;;;;;;;17.30;nan;100631.19;6268386;22;20007;-50
2021/08/16 05:28:28;;;;;;;12.85;7.70;;;;;;;17.51;nan;100635.97;6268051;22;20440;-49
2021/08/16 05:30:54;;;;;;;12.27;7.30;;;;;;;17.74;nan;100633.44;6268234;22;20011;-50
2021/08/16 05:33:20;;;;;;;12.25;7.53;;;;;;;18.08;nan;100633.06;6267936;22;20000;-50
2021/08/16 05:35:46;;;;;;;13.13;7.28;;;;;;;18.29;nan;100638.88;6267094;22;20010;-50
2021/08/16 05:38:11;;;;;;;9.57;6.47;;;;;;;18.37;nan;100627.34;6266181;22;20015;-51
2021/08/16 05:40:37;;;;;;;10.63;6.13;;;;;;;18.35;nan;100629.56;6266474;22;20003;-50
2021/08/16 05:43:03;;;;;;;10.27;6.30;;;;;;;18.27;nan;100628.34;6267943;22;20228;-52
2021/08/16 05:45:28;;;;;;;9.65;6.32;;;;;;;18.17;nan;100620.44;6239967;22;20081;-50
2021/08/16 05:47:54;;;;;;;10.27;6.72;;;;;;;17.93;nan;100623.31;6269057;22;20003;-49
2021/08/16 05:50:19;;;;;;;13.02;6.05;;;;;;;17.85;nan;100621.31;6270209;22;20027;-50
2021/08/16 05:52:45;;;;;;;10.52;6.55;;;;;;;17.89;nan;100625.03;6268666;22;20039;-50
2021/08/16 05:55:11;;;;;;;9.45;6.05;;;;;;;17.98;nan;100625.94;6270162;22;20023;-50
2021/08/16 05:57:36;;;;;;;9.82;6.03;;;;;;;18.17;nan;100627.75;6270683;22;20000;-50
2021/08/16 06:00:03;;;;;;;9.35;5.55;;;;;;;18.23;nan;100634.69;6270171;22;20495;-50
2021/08/16 06:02:33;;;;;;;9.35;5.78;;;;;;;18.25;nan;100633.28;6270135;22;20003;-50
2021/08/16 06:04:59;;;;;;;7.75;5.68;;;;;;;18.36;nan;100637.41;6271309;22;20003;-50
2021/08/16 06:07:24;;;;;;;10.13;5.65;;;;;;;18.34;nan;100636.09;6243054;22;20481;-52
2021/08/16 06:09:50;;;;;;;9.93;6.43;;;;;;;18.64;nan;100635.47;6269424;22;20057;-49
2021/08/16 06:12:15;;;;;;;11.18;6.97;;;;;;;18.73;nan;100627.44;6269949;22;20360;-47
2021/08/16 06:14:41;;;;;;;13.65;6.63;;;;;;;18.81;nan;100634.84;6242257;22;20081;-47
2021/08/16 06:17:07;;;;;;;9.25;5.70;;;;;;;19.02;nan;100621.59;6269236;22;20428;-48
2021/08/16 06:19:33;;;;;;;10.63;5.82;;;;;;;19.10;nan;100626.31;6241763;22;20011;-47
2021/08/16 06:21:59;;;;;;;9.45;5.25;;;;;;;19.26;nan;100607.72;6242690;22;20000;-47
2021/08/16 06:24:24;;;;;;;8.13;5.75;;;;;;;19.43;nan;100616.00;6270128;22;20079;-49
2021/08/16 06:26:50;;;;;;;13.57;6.53;;;;;;;20.18;nan;100617.81;6269313;22;20364;-51
2021/08/16 06:29:15;;;;;;;8.63;5.50;;;;;;;21.10;nan;100607.69;6268670;22;20689;-47
2021/08/16 06:31:41;;;;;;;6.85;5.05;;;;;;;22.01;nan;100611.19;6216294;22;19999;-48
2021/08/16 06:34:09;;;;;;;7.68;4.78;;;;;;;22.38;nan;100606.84;6269867;22;20029;-50
2021/08/16 06:36:38;;;;;;;7.63;5.10;;;;;;;23.06;nan;100602.03;6268922;22;19999;-50
2021/08/16 06:39:08;;;;;;;8.13;4.68;;;;;;;22.79;nan;100600.59;6268949;22;20024;-48
2021/08/16 06:41:35;;;;;;;8.65;4.85;;;;;;;21.87;nan;100608.66;6242067;22;20004;-49
2021/08/16 06:44:01;;;;;;;7.90;4.95;;;;;;;21.40;nan;100621.47;6269708;22;20012;-47
2021/08/16 06:46:26;;;;;;;8.95;4.82;;;;;;;21.37;nan;100620.22;6268303;22;20302;-49
2021/08/16 06:48:52;;;;;;;9.25;5.25;;;;;;;21.47;nan;100618.25;6268580;22;20011;-48
2021/08/16 06:51:17;;;;;;;8.60;5.00;;;;;;;21.46;nan;100616.66;6268869;22;20003;-47
2021/08/16 06:53:43;;;;;;;8.23;4.78;;;;;;;21.40;nan;100613.31;6268563;22;20003;-47
2021/08/16 06:56:09;;;;;;;11.32;5.47;;;;;;;21.66;nan;100605.06;6242527;22;20011;-48
2021/08/16 06:58:34;;;;;;;14.60;5.20;;;;;;;21.69;nan;100607.13;6240323;22;20296;-47
2021/08/16 07:01:00;;;;;;;10.73;4.80;;;;;;;21.65;nan;100596.06;6269899;22;20014;-49
2021/08/16 07:03:29;;;;;;;7.13;4.53;;;;;;;21.82;nan;100608.84;6269675;22;20019;-50
2021/08/16 07:05:55;;;;;;;8.98;5.07;;;;;;;21.89;nan;100602.88;6269000;22;20082;-49
2021/08/16 07:08:20;;;;;;;7.20;4.90;;;;;;;22.01;nan;100601.06;6268943;22;20028;-49
2021/08/16 07:10:47;;;;;;;8.43;4.43;;;;;;;21.40;nan;100610.59;6268804;22;20004;-50
2021/08/16 07:13:13;;;;;;;8.68;5.18;;;;;;;21.67;nan;100601.19;6241006;22;20003;-51
2021/08/16 07:15:38;;;;;;;7.10;4.90;;;;;;;21.90;nan;100605.31;6268599;22;20004;-47
2021/08/16 07:18:04;;;;;;;8.85;4.93;;;;;;;22.24;nan;100598.88;6268766;22;20006;-51
2021/08/16 07:20:30;;;;;;;12.65;5.07;;;;;;;22.33;nan;100598.84;6268330;22;20031;-49
2021/08/16 07:22:56;;;;;;;9.95;4.90;;;;;;;21.97;nan;100605.59;6269326;22;20008;-51
2021/08/16 07:25:21;;;;;;;9.82;6.10;;;;;;;21.98;nan;100606.38;6267987;22;20057;-51
2021/08/16 07:27:47;;;;;;;9.45;5.72;;;;;;;22.58;nan;100602.53;6267513;22;20008;-51
2021/08/16 07:30:13;;;;;;;9.95;5.45;;;;;;;22.86;nan;100602.84;6266790;22;20072;-50
2021/08/16 07:32:39;;;;;;;8.63;4.22;;;;;;;23.07;nan;100598.16;6266622;22;20011;-49
2021/08/16 07:35:05;;;;;;;7.07;4.32;;;;;;;23.30;nan;100593.09;6267264;22;20053;-47
2021/08/16 07:37:30;;;;;;;6.57;4.22;;;;;;;23.11;nan;100601.00;6267019;22;20007;-50
2021/08/16 07:39:55;;;;;;;9.73;4.20;;;;;;;23.37;nan;100593.38;6239775;22;20177;-48
2021/08/16 07:42:23;;;;;;;7.05;3.50;;;;;;;23.46;nan;100588.59;6267567;22;20650;-47
2021/08/16 07:44:51;;;;;;;7.93;4.20;;;;;;;23.24;nan;100585.47;6266308;22;20018;-50
2021/08/16 07:47:17;;;;;;;6.72;3.38;;;;;;;23.06;nan;100585.63;6268014;22;20003;-50
2021/08/16 07:49:42;;;;;;;5.38;3.33;;;;;;;22.85;nan;100602.03;6266174;22;20026;-48
2021/08/16 07:52:08;;;;;;;9.63;3.83;;;;;;;23.29;nan;100588.78;6264799;22;20008;-48
2021/08/16 07:54:33;;;;;;;7.32;3.53;;;;;;;23.38;nan;100588.69;6266720;22;20367;-51
2021/08/16 07:56:58;;;;;;;5.38;3.42;;;;;;;23.57;nan;100591.72;6267627;22;20062;-48
2021/08/16 07:59:24;;;;;;;6.13;3.70;;;;;;;23.70;nan;100590.63;6266327;22;20061;-48
2021/08/16 08:01:50;;;;;;;7.25;3.42;;;;;;;23.84;nan;100587.53;6267296;22;20004;-50
2021/08/16 08:04:16;;;;;;;4.05;2.95;;;;;;;23.89;nan;100592.00;6267391;22;20447;-47
2021/08/16 08:06:41;;;;;;;4.47;3.25;;;;;;;23.83;nan;100588.66;6267391;22;20003;-49
2021/08/16 08:09:07;;;;;;;6.70;2.80;;;;;;;23.96;nan;100595.75;6266805;22;20362;-50
2021/08/16 08:11:32;;;;;;;6.22;3.30;;;;;;;23.99;nan;100597.00;6265780;22;20003;-47
2021/08/16 08:13:58;;;;;;;8.27;3.47;;;;;;;23.92;nan;100594.84;6266653;22;20004;-47
2021/08/16 08:16:24;;;;;;;4.70;3.10;;;;;;;24.32;nan;100602.38;6267257;22;20224;-47
2021/08/16 08:18:49;;;;;;;5.43;3.28;;;;;;;24.38;nan;100601.81;6266515;22;20110;-51
2021/08/16 08:21:16;;;;;;;8.48;2.70;;;;;;;24.31;nan;100596.13;6266894;22;20003;-47
2021/08/16 08:23:42;;;;;;;6.75;3.05;;;;;;;24.36;nan;100593.13;6266156;22;20079;-47
2021/08/16 08:26:08;;;;;;;5.95;2.92;;;;;;;24.43;nan;100591.78;6267407;22;20339;-47
2021/08/16 08:28:33;;;;;;;7.13;3.38;;;;;;;24.45;nan;100589.50;6265702;22;20003;-48
2021/08/16 08:30:59;;;;;;;8.00;3.33;;;;;;;24.48;nan;100586.06;6267107;22;20010;-48
2021/08/16 08:33:25;;;;;;;6.75;3.30;;;;;;;24.36;nan;100589.59;6266535;22;20004;-47
2021/08/16 08:35:51;;;;;;;5.10;2.50;;;;;;;24.44;nan;100588.69;6266114;22;20007;-52
2021/08/16 08:38:17;;;;;;;6.30;3.20;;;;;;;24.39;nan;100591.66;6266436;22;20078;-49
2021/08/16 08:40:43;;;;;;;6.28;3.50;;;;;;;24.05;nan;100588.22;6266004;22;20053;-49
2021/08/16 08:43:14;;;;;;;8.98;3.33;;;;;;;24.48;nan;100575.09;6265450;22;20656;-50
2021/08/16 08:45:41;;;;;;;6.72;3.13;;;;;;;24.95;nan;100584.28;6266466;22;20347;-47
2021/08/16 08:48:07;;;;;;;10.77;3.65;;;;;;;24.93;nan;100585.78;6238589;22;20328;-49
2021/08/16 08:50:32;;;;;;;4.72;2.78;;;;;;;24.92;nan;100579.50;6263676;22;20010;-47
2021/08/16 08:53:00;;;;;;;9.18;3.65;;;;;;;24.80;nan;100581.53;6265957;22;20003;-47
2021/08/16 08:55:25;;;;;;;10.57;4.20;;;;;;;25.08;nan;100584.28;6266232;22;19999;-51
2021/08/16 08:57:51;;;;;;;7.43;3.72;;;;;;;24.96;nan;100594.13;6263489;22;20061;-48
2021/08/16 09:00:19;;;;;;;6.60;2.88;;;;;;;25.39;nan;100584.34;6266749;22;20006;-48
2021/08/16 09:03:01;;;;;;;6.53;3.72;;;;;;;25.37;nan;100589.41;6239061;22;20013;-51
2021/08/16 09:05:27;;;;;;;7.13;3.08;;;;;;;25.67;nan;100592.50;6265960;22;20070;-50
2021/08/16 09:07:55;;;;;;;3.72;2.83;;;;;;;25.84;nan;100585.91;6264721;22;20000;-48
2021/08/16 09:10:25;;;;;;;6.10;3.17;;;;;;;25.71;nan;100592.66;6266288;22;20003;-49
2021/08/16 09:12:56;;;;;;;4.05;2.60;;;;;;;26.31;nan;100587.78;6237610;22;20004;-50
2021/08/16 09:15:23;;;;;;;8.18;3.30;;;;;;;26.04;nan;100593.09;6267068;22;20008;-47
2021/08/16 09:17:51;;;;;;;8.90;3.25;;;;;;;26.14;nan;100592.53;6265990;22;20026;-48
2021/08/16 09:20:24;;;;;;;8.18;3.40;;;;;;;26.33;nan;100600.00;6265505;22;20007;-47
2021/08/16 09:23:01;;;;;;;7.00;3.13;;;;;;;25.72;nan;100599.72;6240932;22;20079;-49
2021/08/16 09:25:31;;;;;;;6.00;3.35;;;;;;;25.90;nan;100600.97;6268701;22;20007;-52
2021/08/16 09:27:57;;;;;;;7.65;3.35;;;;;;;24.90;nan;100608.41;6266924;22;20061;-47
2021/08/16 09:30:38;;;;;;;5.00;3.20;;;;;;;25.38;nan;100599.22;6268930;22;20336;-49
2021/08/16 09:33:15;;;;;;;6.47;3.53;;;;;;;25.00;nan;100597.81;6241353;22;20344;-50
2021/08/16 09:35:59;;;;;;;6.60;3.45;;;;;;;25.00;nan;100605.22;6268137;22;20008;-49
2021/08/16 09:38:39;;;;;;;6.82;4.00;;;;;;;25.06;nan;100608.50;6241150;22;20034;-47
2021/08/16 09:41:07;;;;;;;12.30;3.60;;;;;;;25.29;nan;100598.56;6240865;22;20031;-49
2021/08/16 09:43:33;;;;;;;8.88;3.38;;;;;;;25.69;nan;100600.44;6240048;22;20075;-50
2021/08/16 09:46:00;;;;;;;8.30;4.18;;;;;;;25.53;nan;100601.19;6278373;22;20022;-47
2021/08/16 09:48:26;;;;;;;8.90;3.47;;;;;;;25.42;nan;100594.63;6268280;22;20274;-49
2021/08/16 09:50:55;;;;;;;5.43;3.55;;;;;;;24.88;nan;100600.53;6265814;22;20392;-47
2021/08/16 09:53:22;;;;;;;8.45;3.83;;;;;;;25.09;nan;100607.81;6268559;22;20008;-47
2021/08/16 09:55:53;;;;;;;6.05;3.50;;;;;;;24.87;nan;100607.19;6268193;22;20086;-47
2021/08/16 09:58:19;;;;;;;4.50;3.03;;;;;;;23.93;nan;100604.66;6268023;22;20007;-47
2021/08/16 10:00:50;;;;;;;5.72;3.60;;;;;;;24.55;nan;100606.22;6268390;22;20093;-47
2021/08/16 10:03:16;;;;;;;5.63;3.55;;;;;;;24.76;nan;100617.00;6268896;22;20003;-46
2021/08/16 10:05:45;;;;;;;6.85;3.35;;;;;;;24.94;nan;100601.88;6267731;22;20060;-48
2021/08/16 10:08:13;;;;;;;6.28;2.83;;;;;;;25.06;nan;100611.25;6268109;22;20475;-46
2021/08/16 10:10:42;;;;;;;7.78;3.05;;;;;;;25.36;nan;100608.94;6268105;22;20000;-47
2021/08/16 10:13:10;;;;;;;6.43;2.95;;;;;;;25.35;nan;100619.13;6263813;22;20004;-46
2021/08/16 10:15:46;;;;;;;15.07;4.60;;;;;;;24.92;nan;100612.41;6266518;22;20007;-47
2021/08/16 10:18:21;;;;;;;11.35;3.85;;;;;;;25.68;nan;100616.13;6267965;22;20011;-46
2021/08/16 10:20:48;;;;;;;6.68;3.55;;;;;;;25.55;nan;100612.59;6267606;22;20274;-46
2021/08/16 10:23:22;;;;;;;7.82;3.55;;;;;;;25.66;nan;100610.13;6268028;22;20507;-46
2021/08/16 10:25:50;;;;;;;6.15;3.20;;;;;;;25.41;nan;100619.66;6268640;22;20008;-49
2021/08/16 10:28:27;;;;;;;5.10;3.88;;;;;;;25.07;nan;100615.59;6266455;22;20003;-47
2021/08/16 10:30:55;;;;;;;9.30;4.00;;;;;;;24.50;nan;100611.16;6264605;22;20087;-48
2021/08/16 10:33:21;;;;;;;6.07;3.65;;;;;;;25.00;nan;100617.00;6264790;22;20035;-46
2021/08/16 10:35:47;;;;;;;8.00;4.25;;;;;;;24.74;nan;100613.03;6265337;22;20059;-47
2021/08/16 10:38:14;;;;;;;5.32;3.70;;;;;;;25.07;nan;100604.63;6263379;22;20389;-46
2021/08/16 10:40:44;;;;;;;5.32;3.33;;;;;;;25.10;nan;100609.41;6262927;22;20010;-46
2021/08/16 10:43:12;;;;;;;4.20;3.25;;;;;;;24.83;nan;100611.75;6265013;22;20004;-48
2021/08/16 10:45:56;;;;;;;10.48;3.85;;;;;;;24.90;nan;100611.16;6265197;22;20004;-48
2021/08/16 10:48:24;;;;;;;20.17;4.50;;;;;;;25.21;nan;100616.78;6265556;22;20010;-47
2021/08/16 10:51:02;;;;;;;7.07;3.30;;;;;;;25.50;nan;100609.34;6259640;22;20003;-46
2021/08/16 10:53:28;;;;;;;4.20;2.78;;;;;;;25.23;nan;100624.66;6266213;22;20004;-46
2021/08/16 10:55:54;;;;;;;5.95;3.42;;;;;;;24.93;nan;100633.19;6265928;22;20489;-51
2021/08/16 10:58:20;;;;;;;9.88;3.67;;;;;;;24.68;nan;100623.44;6239803;22;20018;-46
2021/08/16 11:00:46;;;;;;;8.57;2.83;;;;;;;24.55;nan;100621.84;6265865;22;20011;-49
2021/08/16 11:03:11;;;;;;;8.32;3.10;;;;;;;24.02;nan;100631.91;6266917;22;20419;-51
2021/08/16 11:05:39;;;;;;;4.65;3.30;;;;;;;24.62;nan;100622.91;6265725;22;20121;-46
2021/08/16 11:08:22;;;;;;;3.83;2.65;;;;;;;24.13;nan;100629.50;6268111;22;20386;-48
2021/08/16 11:14:11;;;;;;;3.95;2.30;;;;;;;24.52;nan;100633.50;6268814;22;20069;-48
2021/08/16 11:16:50;;;;;;;6.03;2.40;;;;;;;24.85;nan;100631.38;6264999;22;20008;-47
2021/08/16 11:19:16;;;;;;;4.15;2.45;;;;;;;25.00;nan;100618.94;6264351;22;20006;-50
2021/08/16 11:22:02;;;;;;;4.15;2.22;;;;;;;25.04;nan;100628.06;6265426;22;20348;-47
2021/08/16 11:24:35;;;;;;;7.20;2.67;;;;;;;24.71;nan;100641.91;6265283;22;20004;-47
2021/08/16 11:27:16;;;;;;;3.17;2.17;;;;;;;24.92;nan;100642.53;6265659;22;20018;-47
2021/08/16 11:29:42;;;;;;;9.38;2.90;;;;;;;24.87;nan;100637.31;6264470;22;20010;-49
2021/08/16 11:32:08;;;;;;;6.03;2.50;;;;;;;24.73;nan;100628.69;6264938;22;20007;-47
2021/08/16 11:34:53;;;;;;;6.40;2.78;;;;;;;25.28;nan;100622.44;6265724;22;19999;-49
2021/08/16 11:37:19;;;;;;;6.28;2.60;;;;;;;25.08;nan;100622.66;6265499;22;20436;-47
2021/08/16 11:39:47;;;;;;;7.93;2.28;;;;;;;25.16;nan;100629.97;6265267;22;20018;-50
2021/08/16 11:42:12;;;;;;;3.63;2.53;;;;;;;25.08;nan;100614.44;6266077;22;20443;-50